<?xml version="1.0" encoding="UTF-8" standalone="no" ?>
<gpx xmlns="http://www.topografix.com/GPX/1/1" xmlns:xsi="http://www.w3.org/2001/XMLSchema-instance" xsi:schemaLocation="http://www.topografix.com/GPX/1/1 http://www.topografix.com/GPX/1/1/gpx.xsd" version="1.1" creator="VisuGPX - https://www.visugpx.com">
  <metadata>
    <name>Murs Course à pied</name>
  </metadata>
  <trk>
    <name><![CDATA[Murs Course à pied_1]]></name>
    <trkseg>
      <trkpt lat="43.96757" lon="5.26269">
        <ele>456.6</ele>
        <time>2021-11-28T10:36:00Z</time>
      </trkpt>
      <trkpt lat="43.96766" lon="5.26262">
        <ele>457.4</ele>
        <time>2021-11-28T10:36:13Z</time>
      </trkpt>
      <trkpt lat="43.96769" lon="5.2626">
        <ele>457.6</ele>
        <time>2021-11-28T10:36:16Z</time>
      </trkpt>
      <trkpt lat="43.96771" lon="5.26258">
        <ele>457.8</ele>
        <time>2021-11-28T10:36:18Z</time>
      </trkpt>
      <trkpt lat="43.96773" lon="5.26253">
        <ele>458.8</ele>
        <time>2021-11-28T10:36:21Z</time>
      </trkpt>
      <trkpt lat="43.96774" lon="5.26252">
        <ele>459</ele>
        <time>2021-11-28T10:36:22Z</time>
      </trkpt>
      <trkpt lat="43.9678" lon="5.26245">
        <ele>459.8</ele>
        <time>2021-11-28T10:36:27Z</time>
      </trkpt>
      <trkpt lat="43.96785" lon="5.26236">
        <ele>461</ele>
        <time>2021-11-28T10:36:33Z</time>
      </trkpt>
      <trkpt lat="43.96789" lon="5.26227">
        <ele>462</ele>
        <time>2021-11-28T10:36:38Z</time>
      </trkpt>
      <trkpt lat="43.96793" lon="5.26221">
        <ele>462</ele>
        <time>2021-11-28T10:36:42Z</time>
      </trkpt>
      <trkpt lat="43.96797" lon="5.26207">
        <ele>463.2</ele>
        <time>2021-11-28T10:36:50Z</time>
      </trkpt>
      <trkpt lat="43.96802" lon="5.26202">
        <ele>464.2</ele>
        <time>2021-11-28T10:36:55Z</time>
      </trkpt>
      <trkpt lat="43.96806" lon="5.26197">
        <ele>464.6</ele>
        <time>2021-11-28T10:36:59Z</time>
      </trkpt>
      <trkpt lat="43.96809" lon="5.26194">
        <ele>465.2</ele>
        <time>2021-11-28T10:37:02Z</time>
      </trkpt>
      <trkpt lat="43.96816" lon="5.26186">
        <ele>466.4</ele>
        <time>2021-11-28T10:37:09Z</time>
      </trkpt>
      <trkpt lat="43.96817" lon="5.26185">
        <ele>466.4</ele>
        <time>2021-11-28T10:37:10Z</time>
      </trkpt>
      <trkpt lat="43.96822" lon="5.2618">
        <ele>467</ele>
        <time>2021-11-28T10:37:15Z</time>
      </trkpt>
      <trkpt lat="43.96824" lon="5.26179">
        <ele>467.4</ele>
        <time>2021-11-28T10:37:18Z</time>
      </trkpt>
      <trkpt lat="43.96829" lon="5.26178">
        <ele>468.4</ele>
        <time>2021-11-28T10:37:23Z</time>
      </trkpt>
      <trkpt lat="43.96837" lon="5.26175">
        <ele>469.4</ele>
        <time>2021-11-28T10:37:29Z</time>
      </trkpt>
      <trkpt lat="43.96839" lon="5.26175">
        <ele>469.6</ele>
        <time>2021-11-28T10:37:30Z</time>
      </trkpt>
      <trkpt lat="43.96845" lon="5.26173">
        <ele>469.8</ele>
        <time>2021-11-28T10:37:34Z</time>
      </trkpt>
      <trkpt lat="43.96852" lon="5.26169">
        <ele>470.6</ele>
        <time>2021-11-28T10:37:38Z</time>
      </trkpt>
      <trkpt lat="43.96864" lon="5.26157">
        <ele>471.8</ele>
        <time>2021-11-28T10:37:48Z</time>
      </trkpt>
      <trkpt lat="43.96871" lon="5.26147">
        <ele>472.8</ele>
        <time>2021-11-28T10:37:54Z</time>
      </trkpt>
      <trkpt lat="43.96873" lon="5.26146">
        <ele>473.2</ele>
        <time>2021-11-28T10:37:55Z</time>
      </trkpt>
      <trkpt lat="43.96876" lon="5.26142">
        <ele>473.8</ele>
        <time>2021-11-28T10:37:57Z</time>
      </trkpt>
      <trkpt lat="43.96882" lon="5.26137">
        <ele>475</ele>
        <time>2021-11-28T10:38:01Z</time>
      </trkpt>
      <trkpt lat="43.96887" lon="5.26131">
        <ele>475.4</ele>
        <time>2021-11-28T10:38:06Z</time>
      </trkpt>
      <trkpt lat="43.96898" lon="5.26118">
        <ele>476</ele>
        <time>2021-11-28T10:38:14Z</time>
      </trkpt>
      <trkpt lat="43.96901" lon="5.26117">
        <ele>476.4</ele>
        <time>2021-11-28T10:38:16Z</time>
      </trkpt>
      <trkpt lat="43.96908" lon="5.26112">
        <ele>477.2</ele>
        <time>2021-11-28T10:38:20Z</time>
      </trkpt>
      <trkpt lat="43.96914" lon="5.26109">
        <ele>477.8</ele>
        <time>2021-11-28T10:38:25Z</time>
      </trkpt>
      <trkpt lat="43.96917" lon="5.26106">
        <ele>478.6</ele>
        <time>2021-11-28T10:38:29Z</time>
      </trkpt>
      <trkpt lat="43.96922" lon="5.26101">
        <ele>479.6</ele>
        <time>2021-11-28T10:38:34Z</time>
      </trkpt>
      <trkpt lat="43.96928" lon="5.26098">
        <ele>479.8</ele>
        <time>2021-11-28T10:38:38Z</time>
      </trkpt>
      <trkpt lat="43.96933" lon="5.26091">
        <ele>479.8</ele>
        <time>2021-11-28T10:38:43Z</time>
      </trkpt>
      <trkpt lat="43.96937" lon="5.26085">
        <ele>480.6</ele>
        <time>2021-11-28T10:38:47Z</time>
      </trkpt>
      <trkpt lat="43.9694" lon="5.26083">
        <ele>481</ele>
        <time>2021-11-28T10:38:49Z</time>
      </trkpt>
      <trkpt lat="43.96942" lon="5.2608">
        <ele>481.2</ele>
        <time>2021-11-28T10:38:51Z</time>
      </trkpt>
      <trkpt lat="43.96945" lon="5.26074">
        <ele>481.8</ele>
        <time>2021-11-28T10:38:54Z</time>
      </trkpt>
      <trkpt lat="43.96947" lon="5.26071">
        <ele>482.2</ele>
        <time>2021-11-28T10:38:56Z</time>
      </trkpt>
      <trkpt lat="43.9695" lon="5.26068">
        <ele>482.6</ele>
        <time>2021-11-28T10:38:58Z</time>
      </trkpt>
      <trkpt lat="43.96953" lon="5.26062">
        <ele>482.8</ele>
        <time>2021-11-28T10:39:01Z</time>
      </trkpt>
      <trkpt lat="43.96955" lon="5.26057">
        <ele>483.4</ele>
        <time>2021-11-28T10:39:04Z</time>
      </trkpt>
      <trkpt lat="43.96958" lon="5.26051">
        <ele>484</ele>
        <time>2021-11-28T10:39:07Z</time>
      </trkpt>
      <trkpt lat="43.96965" lon="5.26041">
        <ele>485.2</ele>
        <time>2021-11-28T10:39:13Z</time>
      </trkpt>
      <trkpt lat="43.96969" lon="5.26035">
        <ele>486.2</ele>
        <time>2021-11-28T10:39:17Z</time>
      </trkpt>
      <trkpt lat="43.96976" lon="5.26022">
        <ele>487.2</ele>
        <time>2021-11-28T10:39:25Z</time>
      </trkpt>
      <trkpt lat="43.96983" lon="5.26008">
        <ele>488.4</ele>
        <time>2021-11-28T10:39:33Z</time>
      </trkpt>
      <trkpt lat="43.96986" lon="5.26">
        <ele>489.4</ele>
        <time>2021-11-28T10:39:38Z</time>
      </trkpt>
      <trkpt lat="43.96986" lon="5.25999">
        <ele>489.6</ele>
        <time>2021-11-28T10:39:39Z</time>
      </trkpt>
      <trkpt lat="43.96987" lon="5.25993">
        <ele>490.4</ele>
        <time>2021-11-28T10:39:42Z</time>
      </trkpt>
      <trkpt lat="43.96988" lon="5.25989">
        <ele>490.8</ele>
        <time>2021-11-28T10:39:44Z</time>
      </trkpt>
      <trkpt lat="43.96994" lon="5.25975">
        <ele>491.6</ele>
        <time>2021-11-28T10:39:51Z</time>
      </trkpt>
      <trkpt lat="43.96997" lon="5.25972">
        <ele>491.6</ele>
        <time>2021-11-28T10:39:53Z</time>
      </trkpt>
      <trkpt lat="43.96998" lon="5.25965">
        <ele>492.8</ele>
        <time>2021-11-28T10:39:57Z</time>
      </trkpt>
      <trkpt lat="43.96999" lon="5.25961">
        <ele>494.2</ele>
        <time>2021-11-28T10:40:00Z</time>
      </trkpt>
      <trkpt lat="43.97002" lon="5.25955">
        <ele>495.6</ele>
        <time>2021-11-28T10:40:03Z</time>
      </trkpt>
      <trkpt lat="43.97002" lon="5.25952">
        <ele>496</ele>
        <time>2021-11-28T10:40:04Z</time>
      </trkpt>
      <trkpt lat="43.97003" lon="5.25945">
        <ele>496.8</ele>
        <time>2021-11-28T10:40:07Z</time>
      </trkpt>
      <trkpt lat="43.97003" lon="5.25943">
        <ele>497.2</ele>
        <time>2021-11-28T10:40:09Z</time>
      </trkpt>
      <trkpt lat="43.97004" lon="5.2594">
        <ele>498</ele>
        <time>2021-11-28T10:40:11Z</time>
      </trkpt>
      <trkpt lat="43.97005" lon="5.25936">
        <ele>499.2</ele>
        <time>2021-11-28T10:40:15Z</time>
      </trkpt>
      <trkpt lat="43.97006" lon="5.25928">
        <ele>500.4</ele>
        <time>2021-11-28T10:40:21Z</time>
      </trkpt>
      <trkpt lat="43.97006" lon="5.25927">
        <ele>500.6</ele>
        <time>2021-11-28T10:40:22Z</time>
      </trkpt>
      <trkpt lat="43.97007" lon="5.25923">
        <ele>501.6</ele>
        <time>2021-11-28T10:40:25Z</time>
      </trkpt>
      <trkpt lat="43.97008" lon="5.25921">
        <ele>501.8</ele>
        <time>2021-11-28T10:40:26Z</time>
      </trkpt>
      <trkpt lat="43.97009" lon="5.25916">
        <ele>502.6</ele>
        <time>2021-11-28T10:40:29Z</time>
      </trkpt>
      <trkpt lat="43.9701" lon="5.25914">
        <ele>502.8</ele>
        <time>2021-11-28T10:40:30Z</time>
      </trkpt>
      <trkpt lat="43.97011" lon="5.25911">
        <ele>503.2</ele>
        <time>2021-11-28T10:40:32Z</time>
      </trkpt>
      <trkpt lat="43.97012" lon="5.25908">
        <ele>503.6</ele>
        <time>2021-11-28T10:40:33Z</time>
      </trkpt>
      <trkpt lat="43.97012" lon="5.25904">
        <ele>504.6</ele>
        <time>2021-11-28T10:40:36Z</time>
      </trkpt>
      <trkpt lat="43.97012" lon="5.25901">
        <ele>505.2</ele>
        <time>2021-11-28T10:40:38Z</time>
      </trkpt>
      <trkpt lat="43.97013" lon="5.25897">
        <ele>505.8</ele>
        <time>2021-11-28T10:40:40Z</time>
      </trkpt>
      <trkpt lat="43.97013" lon="5.25891">
        <ele>507</ele>
        <time>2021-11-28T10:40:44Z</time>
      </trkpt>
      <trkpt lat="43.97012" lon="5.25885">
        <ele>508</ele>
        <time>2021-11-28T10:40:47Z</time>
      </trkpt>
      <trkpt lat="43.97011" lon="5.25873">
        <ele>509</ele>
        <time>2021-11-28T10:40:53Z</time>
      </trkpt>
      <trkpt lat="43.97012" lon="5.25866">
        <ele>510.2</ele>
        <time>2021-11-28T10:40:57Z</time>
      </trkpt>
      <trkpt lat="43.97012" lon="5.25865">
        <ele>510.6</ele>
        <time>2021-11-28T10:40:58Z</time>
      </trkpt>
      <trkpt lat="43.97012" lon="5.25863">
        <ele>511</ele>
        <time>2021-11-28T10:41:00Z</time>
      </trkpt>
      <trkpt lat="43.97011" lon="5.25862">
        <ele>511.2</ele>
        <time>2021-11-28T10:41:01Z</time>
      </trkpt>
      <trkpt lat="43.97011" lon="5.25858">
        <ele>512.4</ele>
        <time>2021-11-28T10:41:04Z</time>
      </trkpt>
      <trkpt lat="43.9701" lon="5.25851">
        <ele>513.8</ele>
        <time>2021-11-28T10:41:08Z</time>
      </trkpt>
      <trkpt lat="43.9701" lon="5.25846">
        <ele>515.2</ele>
        <time>2021-11-28T10:41:11Z</time>
      </trkpt>
      <trkpt lat="43.97009" lon="5.25841">
        <ele>516.2</ele>
        <time>2021-11-28T10:41:14Z</time>
      </trkpt>
      <trkpt lat="43.97008" lon="5.25838">
        <ele>516.6</ele>
        <time>2021-11-28T10:41:16Z</time>
      </trkpt>
      <trkpt lat="43.97008" lon="5.25835">
        <ele>516.8</ele>
        <time>2021-11-28T10:41:18Z</time>
      </trkpt>
      <trkpt lat="43.97008" lon="5.25832">
        <ele>517.2</ele>
        <time>2021-11-28T10:41:20Z</time>
      </trkpt>
      <trkpt lat="43.97006" lon="5.2583">
        <ele>517.4</ele>
        <time>2021-11-28T10:41:22Z</time>
      </trkpt>
      <trkpt lat="43.97005" lon="5.25824">
        <ele>518.4</ele>
        <time>2021-11-28T10:41:26Z</time>
      </trkpt>
      <trkpt lat="43.97003" lon="5.25814">
        <ele>519.6</ele>
        <time>2021-11-28T10:41:32Z</time>
      </trkpt>
      <trkpt lat="43.97001" lon="5.2581">
        <ele>520.8</ele>
        <time>2021-11-28T10:41:35Z</time>
      </trkpt>
      <trkpt lat="43.96999" lon="5.25805">
        <ele>522</ele>
        <time>2021-11-28T10:41:39Z</time>
      </trkpt>
      <trkpt lat="43.96996" lon="5.25801">
        <ele>522.6</ele>
        <time>2021-11-28T10:41:43Z</time>
      </trkpt>
      <trkpt lat="43.96994" lon="5.25797">
        <ele>523.2</ele>
        <time>2021-11-28T10:41:46Z</time>
      </trkpt>
      <trkpt lat="43.96994" lon="5.25796">
        <ele>523.6</ele>
        <time>2021-11-28T10:41:47Z</time>
      </trkpt>
      <trkpt lat="43.96992" lon="5.25791">
        <ele>524.4</ele>
        <time>2021-11-28T10:41:50Z</time>
      </trkpt>
      <trkpt lat="43.96989" lon="5.25786">
        <ele>525.6</ele>
        <time>2021-11-28T10:41:54Z</time>
      </trkpt>
      <trkpt lat="43.96988" lon="5.25784">
        <ele>526.6</ele>
        <time>2021-11-28T10:41:56Z</time>
      </trkpt>
      <trkpt lat="43.96988" lon="5.25782">
        <ele>527.2</ele>
        <time>2021-11-28T10:41:57Z</time>
      </trkpt>
      <trkpt lat="43.96986" lon="5.2578">
        <ele>527.8</ele>
        <time>2021-11-28T10:41:59Z</time>
      </trkpt>
      <trkpt lat="43.96986" lon="5.25779">
        <ele>528</ele>
        <time>2021-11-28T10:42:00Z</time>
      </trkpt>
      <trkpt lat="43.96986" lon="5.25777">
        <ele>528.4</ele>
        <time>2021-11-28T10:42:02Z</time>
      </trkpt>
      <trkpt lat="43.96986" lon="5.25776">
        <ele>528.8</ele>
        <time>2021-11-28T10:42:03Z</time>
      </trkpt>
      <trkpt lat="43.96984" lon="5.25769">
        <ele>528.8</ele>
        <time>2021-11-28T10:43:18Z</time>
      </trkpt>
      <trkpt lat="43.96991" lon="5.25782">
        <ele>529.4</ele>
        <time>2021-11-28T10:43:58Z</time>
      </trkpt>
      <trkpt lat="43.96992" lon="5.25786">
        <ele>527.2</ele>
        <time>2021-11-28T10:44:01Z</time>
      </trkpt>
      <trkpt lat="43.96992" lon="5.25787">
        <ele>526.4</ele>
        <time>2021-11-28T10:44:02Z</time>
      </trkpt>
      <trkpt lat="43.96992" lon="5.25789">
        <ele>526.6</ele>
        <time>2021-11-28T10:44:04Z</time>
      </trkpt>
      <trkpt lat="43.96993" lon="5.2579">
        <ele>525.8</ele>
        <time>2021-11-28T10:44:05Z</time>
      </trkpt>
      <trkpt lat="43.96996" lon="5.25794">
        <ele>525.8</ele>
        <time>2021-11-28T10:44:07Z</time>
      </trkpt>
      <trkpt lat="43.97001" lon="5.258">
        <ele>524.4</ele>
        <time>2021-11-28T10:44:10Z</time>
      </trkpt>
      <trkpt lat="43.97001" lon="5.25804">
        <ele>523.8</ele>
        <time>2021-11-28T10:44:12Z</time>
      </trkpt>
      <trkpt lat="43.97" lon="5.25806">
        <ele>523.4</ele>
        <time>2021-11-28T10:44:13Z</time>
      </trkpt>
      <trkpt lat="43.97" lon="5.25808">
        <ele>521.8</ele>
        <time>2021-11-28T10:44:14Z</time>
      </trkpt>
      <trkpt lat="43.97" lon="5.25809">
        <ele>521.8</ele>
        <time>2021-11-28T10:44:15Z</time>
      </trkpt>
      <trkpt lat="43.96999" lon="5.25811">
        <ele>522.8</ele>
        <time>2021-11-28T10:44:16Z</time>
      </trkpt>
      <trkpt lat="43.96998" lon="5.25815">
        <ele>522.6</ele>
        <time>2021-11-28T10:44:18Z</time>
      </trkpt>
      <trkpt lat="43.96998" lon="5.25819">
        <ele>521</ele>
        <time>2021-11-28T10:44:20Z</time>
      </trkpt>
      <trkpt lat="43.97001" lon="5.25826">
        <ele>520.8</ele>
        <time>2021-11-28T10:44:24Z</time>
      </trkpt>
      <trkpt lat="43.97004" lon="5.25835">
        <ele>519.8</ele>
        <time>2021-11-28T10:44:28Z</time>
      </trkpt>
      <trkpt lat="43.97005" lon="5.25843">
        <ele>518.6</ele>
        <time>2021-11-28T10:44:32Z</time>
      </trkpt>
      <trkpt lat="43.97006" lon="5.25851">
        <ele>517.4</ele>
        <time>2021-11-28T10:44:36Z</time>
      </trkpt>
      <trkpt lat="43.97011" lon="5.25858">
        <ele>516.4</ele>
        <time>2021-11-28T10:44:39Z</time>
      </trkpt>
      <trkpt lat="43.97016" lon="5.25864">
        <ele>515.2</ele>
        <time>2021-11-28T10:44:42Z</time>
      </trkpt>
      <trkpt lat="43.97016" lon="5.25866">
        <ele>514.8</ele>
        <time>2021-11-28T10:44:43Z</time>
      </trkpt>
      <trkpt lat="43.97016" lon="5.25869">
        <ele>513.8</ele>
        <time>2021-11-28T10:44:45Z</time>
      </trkpt>
      <trkpt lat="43.97016" lon="5.2587">
        <ele>513.4</ele>
        <time>2021-11-28T10:44:46Z</time>
      </trkpt>
      <trkpt lat="43.97015" lon="5.25874">
        <ele>512.6</ele>
        <time>2021-11-28T10:44:48Z</time>
      </trkpt>
      <trkpt lat="43.97015" lon="5.25877">
        <ele>511.6</ele>
        <time>2021-11-28T10:44:50Z</time>
      </trkpt>
      <trkpt lat="43.97015" lon="5.25878">
        <ele>511.2</ele>
        <time>2021-11-28T10:44:51Z</time>
      </trkpt>
      <trkpt lat="43.97014" lon="5.25888">
        <ele>510</ele>
        <time>2021-11-28T10:44:55Z</time>
      </trkpt>
      <trkpt lat="43.97016" lon="5.25894">
        <ele>508.6</ele>
        <time>2021-11-28T10:44:58Z</time>
      </trkpt>
      <trkpt lat="43.97017" lon="5.25901">
        <ele>507.4</ele>
        <time>2021-11-28T10:45:01Z</time>
      </trkpt>
      <trkpt lat="43.97016" lon="5.25908">
        <ele>506.4</ele>
        <time>2021-11-28T10:45:04Z</time>
      </trkpt>
      <trkpt lat="43.97015" lon="5.2591">
        <ele>506</ele>
        <time>2021-11-28T10:45:05Z</time>
      </trkpt>
      <trkpt lat="43.97013" lon="5.25915">
        <ele>504.8</ele>
        <time>2021-11-28T10:45:08Z</time>
      </trkpt>
      <trkpt lat="43.97013" lon="5.25919">
        <ele>503.8</ele>
        <time>2021-11-28T10:45:10Z</time>
      </trkpt>
      <trkpt lat="43.97012" lon="5.25924">
        <ele>502.4</ele>
        <time>2021-11-28T10:45:12Z</time>
      </trkpt>
      <trkpt lat="43.97012" lon="5.25935">
        <ele>501.4</ele>
        <time>2021-11-28T10:45:16Z</time>
      </trkpt>
      <trkpt lat="43.9701" lon="5.25944">
        <ele>500.6</ele>
        <time>2021-11-28T10:45:20Z</time>
      </trkpt>
      <trkpt lat="43.9701" lon="5.25945">
        <ele>500</ele>
        <time>2021-11-28T10:45:21Z</time>
      </trkpt>
      <trkpt lat="43.97009" lon="5.25948">
        <ele>499.8</ele>
        <time>2021-11-28T10:45:22Z</time>
      </trkpt>
      <trkpt lat="43.97007" lon="5.25951">
        <ele>498.8</ele>
        <time>2021-11-28T10:45:24Z</time>
      </trkpt>
      <trkpt lat="43.97007" lon="5.25957">
        <ele>497.4</ele>
        <time>2021-11-28T10:45:27Z</time>
      </trkpt>
      <trkpt lat="43.97007" lon="5.25959">
        <ele>497.2</ele>
        <time>2021-11-28T10:45:28Z</time>
      </trkpt>
      <trkpt lat="43.97007" lon="5.25964">
        <ele>496.4</ele>
        <time>2021-11-28T10:45:30Z</time>
      </trkpt>
      <trkpt lat="43.97007" lon="5.25966">
        <ele>496</ele>
        <time>2021-11-28T10:45:31Z</time>
      </trkpt>
      <trkpt lat="43.97005" lon="5.25974">
        <ele>494.8</ele>
        <time>2021-11-28T10:45:34Z</time>
      </trkpt>
      <trkpt lat="43.97004" lon="5.2598">
        <ele>493.6</ele>
        <time>2021-11-28T10:45:37Z</time>
      </trkpt>
      <trkpt lat="43.97005" lon="5.25983">
        <ele>493.2</ele>
        <time>2021-11-28T10:45:39Z</time>
      </trkpt>
      <trkpt lat="43.97005" lon="5.25991">
        <ele>492.6</ele>
        <time>2021-11-28T10:45:42Z</time>
      </trkpt>
      <trkpt lat="43.97004" lon="5.25993">
        <ele>492.4</ele>
        <time>2021-11-28T10:45:43Z</time>
      </trkpt>
      <trkpt lat="43.97002" lon="5.26">
        <ele>491.6</ele>
        <time>2021-11-28T10:45:46Z</time>
      </trkpt>
      <trkpt lat="43.97001" lon="5.26002">
        <ele>491.4</ele>
        <time>2021-11-28T10:45:47Z</time>
      </trkpt>
      <trkpt lat="43.96995" lon="5.26016">
        <ele>490.2</ele>
        <time>2021-11-28T10:45:53Z</time>
      </trkpt>
      <trkpt lat="43.96988" lon="5.26028">
        <ele>489.2</ele>
        <time>2021-11-28T10:45:59Z</time>
      </trkpt>
      <trkpt lat="43.96986" lon="5.26031">
        <ele>488.8</ele>
        <time>2021-11-28T10:46:01Z</time>
      </trkpt>
      <trkpt lat="43.96983" lon="5.26035">
        <ele>488.2</ele>
        <time>2021-11-28T10:46:04Z</time>
      </trkpt>
      <trkpt lat="43.96981" lon="5.26037">
        <ele>487.8</ele>
        <time>2021-11-28T10:46:06Z</time>
      </trkpt>
      <trkpt lat="43.96979" lon="5.26045">
        <ele>487</ele>
        <time>2021-11-28T10:46:10Z</time>
      </trkpt>
      <trkpt lat="43.96972" lon="5.26057">
        <ele>485.8</ele>
        <time>2021-11-28T10:46:16Z</time>
      </trkpt>
      <trkpt lat="43.96968" lon="5.26063">
        <ele>485.6</ele>
        <time>2021-11-28T10:46:19Z</time>
      </trkpt>
      <trkpt lat="43.96964" lon="5.26069">
        <ele>484.8</ele>
        <time>2021-11-28T10:46:22Z</time>
      </trkpt>
      <trkpt lat="43.96961" lon="5.26073">
        <ele>484.2</ele>
        <time>2021-11-28T10:46:26Z</time>
      </trkpt>
      <trkpt lat="43.96959" lon="5.26075">
        <ele>483.8</ele>
        <time>2021-11-28T10:46:28Z</time>
      </trkpt>
      <trkpt lat="43.96956" lon="5.26081">
        <ele>483.4</ele>
        <time>2021-11-28T10:46:31Z</time>
      </trkpt>
      <trkpt lat="43.96955" lon="5.26082">
        <ele>483.4</ele>
        <time>2021-11-28T10:46:32Z</time>
      </trkpt>
      <trkpt lat="43.96949" lon="5.26086">
        <ele>482.6</ele>
        <time>2021-11-28T10:46:35Z</time>
      </trkpt>
      <trkpt lat="43.96944" lon="5.26088">
        <ele>482</ele>
        <time>2021-11-28T10:46:38Z</time>
      </trkpt>
      <trkpt lat="43.96939" lon="5.26094">
        <ele>481.6</ele>
        <time>2021-11-28T10:46:42Z</time>
      </trkpt>
      <trkpt lat="43.96938" lon="5.26095">
        <ele>481.6</ele>
        <time>2021-11-28T10:46:43Z</time>
      </trkpt>
      <trkpt lat="43.96937" lon="5.26096">
        <ele>481.4</ele>
        <time>2021-11-28T10:46:44Z</time>
      </trkpt>
      <trkpt lat="43.96935" lon="5.26097">
        <ele>481</ele>
        <time>2021-11-28T10:46:46Z</time>
      </trkpt>
      <trkpt lat="43.96932" lon="5.26098">
        <ele>480.4</ele>
        <time>2021-11-28T10:46:48Z</time>
      </trkpt>
      <trkpt lat="43.96931" lon="5.26098">
        <ele>480</ele>
        <time>2021-11-28T10:46:49Z</time>
      </trkpt>
      <trkpt lat="43.96928" lon="5.261">
        <ele>479.8</ele>
        <time>2021-11-28T10:46:51Z</time>
      </trkpt>
      <trkpt lat="43.96921" lon="5.26106">
        <ele>479</ele>
        <time>2021-11-28T10:46:56Z</time>
      </trkpt>
      <trkpt lat="43.96917" lon="5.26111">
        <ele>478.8</ele>
        <time>2021-11-28T10:46:59Z</time>
      </trkpt>
      <trkpt lat="43.96915" lon="5.26113">
        <ele>478.8</ele>
        <time>2021-11-28T10:47:00Z</time>
      </trkpt>
      <trkpt lat="43.96908" lon="5.26118">
        <ele>478.4</ele>
        <time>2021-11-28T10:47:04Z</time>
      </trkpt>
      <trkpt lat="43.96904" lon="5.26122">
        <ele>478</ele>
        <time>2021-11-28T10:47:07Z</time>
      </trkpt>
      <trkpt lat="43.96902" lon="5.26122">
        <ele>478</ele>
        <time>2021-11-28T10:47:08Z</time>
      </trkpt>
      <trkpt lat="43.96896" lon="5.26125">
        <ele>477</ele>
        <time>2021-11-28T10:47:12Z</time>
      </trkpt>
      <trkpt lat="43.96891" lon="5.26132">
        <ele>476.2</ele>
        <time>2021-11-28T10:47:16Z</time>
      </trkpt>
      <trkpt lat="43.96888" lon="5.26134">
        <ele>475.8</ele>
        <time>2021-11-28T10:47:18Z</time>
      </trkpt>
      <trkpt lat="43.96887" lon="5.26136">
        <ele>475.6</ele>
        <time>2021-11-28T10:47:19Z</time>
      </trkpt>
      <trkpt lat="43.96883" lon="5.2614">
        <ele>475.4</ele>
        <time>2021-11-28T10:47:21Z</time>
      </trkpt>
      <trkpt lat="43.96881" lon="5.26142">
        <ele>475.2</ele>
        <time>2021-11-28T10:47:23Z</time>
      </trkpt>
      <trkpt lat="43.96877" lon="5.26147">
        <ele>474.8</ele>
        <time>2021-11-28T10:47:27Z</time>
      </trkpt>
      <trkpt lat="43.96871" lon="5.2615">
        <ele>474</ele>
        <time>2021-11-28T10:47:31Z</time>
      </trkpt>
      <trkpt lat="43.9687" lon="5.2615">
        <ele>473.8</ele>
        <time>2021-11-28T10:47:32Z</time>
      </trkpt>
      <trkpt lat="43.96869" lon="5.2615">
        <ele>473.6</ele>
        <time>2021-11-28T10:47:33Z</time>
      </trkpt>
      <trkpt lat="43.96864" lon="5.26152">
        <ele>473.2</ele>
        <time>2021-11-28T10:47:35Z</time>
      </trkpt>
      <trkpt lat="43.9686" lon="5.26155">
        <ele>472.4</ele>
        <time>2021-11-28T10:47:38Z</time>
      </trkpt>
      <trkpt lat="43.96854" lon="5.2616">
        <ele>471.8</ele>
        <time>2021-11-28T10:47:41Z</time>
      </trkpt>
      <trkpt lat="43.96848" lon="5.26164">
        <ele>471.4</ele>
        <time>2021-11-28T10:47:44Z</time>
      </trkpt>
      <trkpt lat="43.96842" lon="5.26167">
        <ele>471</ele>
        <time>2021-11-28T10:47:47Z</time>
      </trkpt>
      <trkpt lat="43.96837" lon="5.26172">
        <ele>470.6</ele>
        <time>2021-11-28T10:47:49Z</time>
      </trkpt>
      <trkpt lat="43.96831" lon="5.26176">
        <ele>470.2</ele>
        <time>2021-11-28T10:47:52Z</time>
      </trkpt>
      <trkpt lat="43.9683" lon="5.26177">
        <ele>470</ele>
        <time>2021-11-28T10:47:53Z</time>
      </trkpt>
      <trkpt lat="43.96827" lon="5.26181">
        <ele>469</ele>
        <time>2021-11-28T10:47:55Z</time>
      </trkpt>
      <trkpt lat="43.96825" lon="5.26184">
        <ele>468.6</ele>
        <time>2021-11-28T10:47:57Z</time>
      </trkpt>
      <trkpt lat="43.96812" lon="5.26192">
        <ele>467.8</ele>
        <time>2021-11-28T10:48:04Z</time>
      </trkpt>
      <trkpt lat="43.96799" lon="5.26205">
        <ele>466.6</ele>
        <time>2021-11-28T10:48:12Z</time>
      </trkpt>
      <trkpt lat="43.96794" lon="5.26213">
        <ele>465.6</ele>
        <time>2021-11-28T10:48:16Z</time>
      </trkpt>
      <trkpt lat="43.96792" lon="5.26217">
        <ele>465.4</ele>
        <time>2021-11-28T10:48:18Z</time>
      </trkpt>
      <trkpt lat="43.96788" lon="5.26227">
        <ele>464.4</ele>
        <time>2021-11-28T10:48:22Z</time>
      </trkpt>
      <trkpt lat="43.96782" lon="5.26239">
        <ele>463.2</ele>
        <time>2021-11-28T10:48:27Z</time>
      </trkpt>
      <trkpt lat="43.96781" lon="5.26241">
        <ele>463</ele>
        <time>2021-11-28T10:48:28Z</time>
      </trkpt>
      <trkpt lat="43.96779" lon="5.26245">
        <ele>462.6</ele>
        <time>2021-11-28T10:48:30Z</time>
      </trkpt>
      <trkpt lat="43.96777" lon="5.26249">
        <ele>462.2</ele>
        <time>2021-11-28T10:48:32Z</time>
      </trkpt>
      <trkpt lat="43.96776" lon="5.26249">
        <ele>462</ele>
        <time>2021-11-28T10:48:33Z</time>
      </trkpt>
      <trkpt lat="43.96768" lon="5.26252">
        <ele>461</ele>
        <time>2021-11-28T10:48:39Z</time>
      </trkpt>
      <trkpt lat="43.96767" lon="5.26253">
        <ele>460.6</ele>
        <time>2021-11-28T10:48:40Z</time>
      </trkpt>
      <trkpt lat="43.96761" lon="5.26264">
        <ele>459.8</ele>
        <time>2021-11-28T10:48:45Z</time>
      </trkpt>
      <trkpt lat="43.96763" lon="5.2627">
        <ele>459.2</ele>
        <time>2021-11-28T10:48:48Z</time>
      </trkpt>
      <trkpt lat="43.96768" lon="5.26282">
        <ele>458.8</ele>
        <time>2021-11-28T10:48:52Z</time>
      </trkpt>
      <trkpt lat="43.96779" lon="5.26303">
        <ele>458.4</ele>
        <time>2021-11-28T10:48:59Z</time>
      </trkpt>
      <trkpt lat="43.96789" lon="5.26324">
        <ele>458.4</ele>
        <time>2021-11-28T10:49:06Z</time>
      </trkpt>
      <trkpt lat="43.96791" lon="5.2633">
        <ele>458.8</ele>
        <time>2021-11-28T10:49:08Z</time>
      </trkpt>
      <trkpt lat="43.96784" lon="5.26339">
        <ele>459.4</ele>
        <time>2021-11-28T10:49:12Z</time>
      </trkpt>
      <trkpt lat="43.96768" lon="5.26333">
        <ele>457.6</ele>
        <time>2021-11-28T10:49:20Z</time>
      </trkpt>
      <trkpt lat="43.96768" lon="5.26332">
        <ele>457.4</ele>
        <time>2021-11-28T10:49:21Z</time>
      </trkpt>
      <trkpt lat="43.96769" lon="5.26329">
        <ele>457</ele>
        <time>2021-11-28T10:49:23Z</time>
      </trkpt>
      <trkpt lat="43.9677" lon="5.26322">
        <ele>457</ele>
        <time>2021-11-28T10:49:27Z</time>
      </trkpt>
      <trkpt lat="43.96771" lon="5.26308">
        <ele>457.4</ele>
        <time>2021-11-28T10:49:34Z</time>
      </trkpt>
      <trkpt lat="43.9676" lon="5.26285">
        <ele>457.8</ele>
        <time>2021-11-28T10:49:46Z</time>
      </trkpt>
      <trkpt lat="43.96754" lon="5.26269">
        <ele>458.4</ele>
        <time>2021-11-28T10:49:55Z</time>
      </trkpt>
      <trkpt lat="43.96755" lon="5.26267">
        <ele>458.6</ele>
        <time>2021-11-28T10:49:57Z</time>
      </trkpt>
    </trkseg>
  </trk>
</gpx>